sensor_id;sensor_type;location;lat;lon;timestamp;pressure;altitude;pressure_sealevel;temperature;humidity
6136;BME280;24008;42.664;23.372;2023-04-03T00:01:34;94083.47;;;6.64;72.00
6136;BME280;24008;42.664;23.372;2023-04-03T00:04:03;94080.50;;;6.59;72.27
6136;BME280;24008;42.664;23.372;2023-04-03T00:06:31;93834.09;;;4.96;72.22
6136;BME280;24008;42.664;23.372;2023-04-03T00:08:58;94141.88;;;7.02;72.73
6136;BME280;24008;42.664;23.372;2023-04-03T00:11:26;94040.81;;;6.38;72.98
6136;BME280;24008;42.664;23.372;2023-04-03T00:13:53;93771.72;;;4.46;73.33
6136;BME280;24008;42.664;23.372;2023-04-03T00:16:20;94144.66;;;6.90;73.18
6136;BME280;24008;42.664;23.372;2023-04-03T00:18:47;94135.19;;;6.82;73.86
6136;BME280;24008;42.664;23.372;2023-04-03T00:21:14;94097.72;;;6.55;74.55
6136;BME280;24008;42.664;23.372;2023-04-03T00:23:41;93987.00;;;5.75;74.20
6136;BME280;24008;42.664;23.372;2023-04-03T00:26:07;94126.75;;;6.72;74.39
6136;BME280;24008;42.664;23.372;2023-04-03T00:28:36;94154.50;;;6.44;74.81
6136;BME280;24008;42.664;23.372;2023-04-03T00:31:03;94125.00;;;6.63;75.58
6136;BME280;24008;42.664;23.372;2023-04-03T00:33:29;93980.19;;;5.66;75.80
6136;BME280;24008;42.664;23.372;2023-04-03T00:35:56;94097.16;;;6.42;76.14
6136;BME280;24008;42.664;23.372;2023-04-03T00:38:23;93997.00;;;5.67;76.11
6136;BME280;24008;42.664;23.372;2023-04-03T00:40:50;94136.22;;;6.50;76.27
6136;BME280;24008;42.664;23.372;2023-04-03T00:43:18;94067.59;;;6.12;76.50
6136;BME280;24008;42.664;23.372;2023-04-03T00:45:48;94171.31;;;6.45;76.46
6136;BME280;24008;42.664;23.372;2023-04-03T00:48:18;94132.81;;;6.40;76.73
6136;BME280;24008;42.664;23.372;2023-04-03T00:50:46;94062.75;;;5.90;76.59
6136;BME280;24008;42.664;23.372;2023-04-03T00:53:16;94059.13;;;5.92;77.10
6136;BME280;24008;42.664;23.372;2023-04-03T00:55:44;93962.31;;;5.28;77.46
6136;BME280;24008;42.664;23.372;2023-04-03T00:58:13;94031.28;;;5.71;77.99
6136;BME280;24008;42.664;23.372;2023-04-03T01:00:44;94139.78;;;6.38;78.26
6136;BME280;24008;42.664;23.372;2023-04-03T01:03:14;94139.91;;;6.37;78.23
6136;BME280;24008;42.664;23.372;2023-04-03T01:05:41;94145.81;;;6.37;78.01
6136;BME280;24008;42.664;23.372;2023-04-03T01:08:07;94134.97;;;6.35;78.00
6136;BME280;24008;42.664;23.372;2023-04-03T01:10:34;93899.59;;;4.80;77.68
6136;BME280;24008;42.664;23.372;2023-04-03T01:13:01;94062.28;;;5.85;78.38
6136;BME280;24008;42.664;23.372;2023-04-03T01:15:43;94138.94;;;6.28;78.68
6136;BME280;24008;42.664;23.372;2023-04-03T01:18:10;94138.94;;;6.28;78.51
6136;BME280;24008;42.664;23.372;2023-04-03T01:23:48;94135.75;;;6.26;78.61
6136;BME280;24008;42.664;23.372;2023-04-03T01:26:17;94135.06;;;6.24;78.95
6136;BME280;24008;42.664;23.372;2023-04-03T01:28:44;94135.75;;;6.26;79.04
6136;BME280;24008;42.664;23.372;2023-04-03T01:31:16;94132.28;;;6.27;79.08
6136;BME280;24008;42.664;23.372;2023-04-03T01:33:47;94138.16;;;6.28;79.42
6136;BME280;24008;42.664;23.372;2023-04-03T01:36:17;94134.16;;;6.25;78.89
6136;BME280;24008;42.664;23.372;2023-04-03T01:38:44;94135.44;;;6.20;78.75
6136;BME280;24008;42.664;23.372;2023-04-03T01:41:11;94138.66;;;6.12;78.47
6136;BME280;24008;42.664;23.372;2023-04-03T01:43:38;94125.00;;;5.83;79.09
6136;BME280;24008;42.664;23.372;2023-04-03T01:46:05;94142.69;;;5.94;79.24
6136;BME280;24008;42.664;23.372;2023-04-03T01:48:32;94141.50;;;5.88;79.88
6136;BME280;24008;42.664;23.372;2023-04-03T01:51:00;94144.91;;;5.87;80.47
6136;BME280;24008;42.664;23.372;2023-04-03T01:53:27;94145.97;;;5.85;79.85
6136;BME280;24008;42.664;23.372;2023-04-03T01:55:54;94000.09;;;4.89;79.38
6136;BME280;24008;42.664;23.372;2023-04-03T01:58:20;94057.91;;;5.26;79.24
6136;BME280;24008;42.664;23.372;2023-04-03T02:00:47;94148.25;;;5.88;79.37
6136;BME280;24008;42.664;23.372;2023-04-03T02:03:14;94152.66;;;5.86;78.88
6136;BME280;24008;42.664;23.372;2023-04-03T02:05:41;93904.41;;;4.32;78.72
6136;BME280;24008;42.664;23.372;2023-04-03T02:08:09;94148.97;;;5.90;78.89
6136;BME280;24008;42.664;23.372;2023-04-03T02:10:36;94077.72;;;5.41;78.89
6136;BME280;24008;42.664;23.372;2023-04-03T02:13:02;94149.19;;;5.87;78.89
6136;BME280;24008;42.664;23.372;2023-04-03T02:15:29;94074.19;;;5.33;79.37
6136;BME280;24008;42.664;23.372;2023-04-03T02:17:56;94166.78;;;5.78;79.15
6136;BME280;24008;42.664;23.372;2023-04-03T02:20:23;94086.69;;;5.25;79.85
6136;BME280;24008;42.664;23.372;2023-04-03T02:22:49;94153.91;;;5.70;79.60
6136;BME280;24008;42.664;23.372;2023-04-03T02:25:17;93886.06;;;3.98;80.17
6136;BME280;24008;42.664;23.372;2023-04-03T02:27:45;94126.16;;;5.48;79.84
6136;BME280;24008;42.664;23.372;2023-04-03T02:30:12;94140.09;;;5.54;80.30
6136;BME280;24008;42.664;23.372;2023-04-03T02:32:40;93970.53;;;4.48;79.98
6136;BME280;24008;42.664;23.372;2023-04-03T02:35:08;94137.91;;;5.49;80.59
6136;BME280;24008;42.664;23.372;2023-04-03T02:37:35;94065.88;;;5.00;81.02
6136;BME280;24008;42.664;23.372;2023-04-03T02:40:03;93825.59;;;3.53;80.52
6136;BME280;24008;42.664;23.372;2023-04-03T02:42:32;93559.00;;;1.81;80.97
6136;BME280;24008;42.664;23.372;2023-04-03T02:44:58;94056.91;;;4.96;80.79
6136;BME280;24008;42.664;23.372;2023-04-03T02:47:26;93572.06;;;1.87;80.88
6136;BME280;24008;42.664;23.372;2023-04-03T02:49:52;94069.78;;;5.04;81.69
6136;BME280;24008;42.664;23.372;2023-04-03T02:52:19;94056.72;;;4.88;81.57
6136;BME280;24008;42.664;23.372;2023-04-03T02:54:46;94124.06;;;5.32;81.44
6136;BME280;24008;42.664;23.372;2023-04-03T02:57:13;93946.88;;;4.17;81.39
6136;BME280;24008;42.664;23.372;2023-04-03T02:59:41;94119.88;;;5.22;81.81
6136;BME280;24008;42.664;23.372;2023-04-03T03:02:09;93685.03;;;2.47;81.56
6136;BME280;24008;42.664;23.372;2023-04-03T03:04:37;93962.78;;;4.08;82.50
6136;BME280;24008;42.664;23.372;2023-04-03T03:07:03;94117.78;;;5.06;82.37
6136;BME280;24008;42.664;23.372;2023-04-03T03:09:30;93998.69;;;4.34;82.90
6136;BME280;24008;42.664;23.372;2023-04-03T03:11:57;93922.28;;;3.55;83.77
6136;BME280;24008;42.664;23.372;2023-04-03T03:14:24;94102.72;;;5.04;83.73
6136;BME280;24008;42.664;23.372;2023-04-03T03:16:52;94100.06;;;5.06;83.92
6136;BME280;24008;42.664;23.372;2023-04-03T03:19:19;94049.72;;;4.60;84.03
6136;BME280;24008;42.664;23.372;2023-04-03T03:21:46;94102.19;;;5.11;84.00
6136;BME280;24008;42.664;23.372;2023-04-03T03:24:12;94029.47;;;4.60;84.51
6136;BME280;24008;42.664;23.372;2023-04-03T03:26:41;94107.09;;;5.02;84.25
6136;BME280;24008;42.664;23.372;2023-04-03T03:29:08;94109.03;;;4.99;84.96
6136;BME280;24008;42.664;23.372;2023-04-03T03:31:35;94102.25;;;4.99;84.45
6136;BME280;24008;42.664;23.372;2023-04-03T03:34:03;93598.66;;;1.79;84.53
6136;BME280;24008;42.664;23.372;2023-04-03T03:36:30;94103.97;;;4.99;85.31
6136;BME280;24008;42.664;23.372;2023-04-03T03:38:57;94055.72;;;4.59;85.12
6136;BME280;24008;42.664;23.372;2023-04-03T03:41:23;94039.47;;;4.41;85.23
6136;BME280;24008;42.664;23.372;2023-04-03T03:43:50;94001.25;;;4.12;85.04
6136;BME280;24008;42.664;23.372;2023-04-03T03:46:17;93953.56;;;3.86;86.23
6136;BME280;24008;42.664;23.372;2023-04-03T03:48:44;94041.13;;;4.51;86.01
6136;BME280;24008;42.664;23.372;2023-04-03T03:51:12;94100.09;;;4.95;85.61
6136;BME280;24008;42.664;23.372;2023-04-03T03:53:38;93972.09;;;4.08;85.66
6136;BME280;24008;42.664;23.372;2023-04-03T03:56:06;93974.97;;;4.03;85.99
6136;BME280;24008;42.664;23.372;2023-04-03T03:58:33;94105.53;;;4.90;86.01
6136;BME280;24008;42.664;23.372;2023-04-03T04:01:00;94116.56;;;4.89;86.09
6136;BME280;24008;42.664;23.372;2023-04-03T04:03:27;94110.41;;;4.82;86.05
6136;BME280;24008;42.664;23.372;2023-04-03T04:05:54;93618.91;;;1.78;85.58
6136;BME280;24008;42.664;23.372;2023-04-03T04:08:23;94030.50;;;4.37;86.12
6136;BME280;24008;42.664;23.372;2023-04-03T04:10:50;94090.84;;;4.73;86.03
6136;BME280;24008;42.664;23.372;2023-04-03T04:13:17;94004.84;;;4.09;85.55
6136;BME280;24008;42.664;23.372;2023-04-03T04:15:44;93686.22;;;1.98;85.39
6136;BME280;24008;42.664;23.372;2023-04-03T04:18:11;94115.06;;;4.66;86.51
6136;BME280;24008;42.664;23.372;2023-04-03T04:20:37;94121.38;;;4.60;86.43
6136;BME280;24008;42.664;23.372;2023-04-03T04:23:04;94124.84;;;4.59;86.19
6136;BME280;24008;42.664;23.372;2023-04-03T04:25:33;94151.63;;;4.62;86.47
6136;BME280;24008;42.664;23.372;2023-04-03T04:27:59;93941.25;;;3.50;86.63
6136;BME280;24008;42.664;23.372;2023-04-03T04:30:26;94046.22;;;4.19;86.49
6136;BME280;24008;42.664;23.372;2023-04-03T04:32:53;94122.84;;;4.74;86.76
6136;BME280;24008;42.664;23.372;2023-04-03T04:35:19;94125.03;;;4.79;86.84
6136;BME280;24008;42.664;23.372;2023-04-03T04:37:46;94128.56;;;4.87;85.97
6136;BME280;24008;42.664;23.372;2023-04-03T04:40:13;94136.59;;;4.92;86.69
6136;BME280;24008;42.664;23.372;2023-04-03T04:42:41;94143.00;;;4.96;85.92
6136;BME280;24008;42.664;23.372;2023-04-03T04:45:09;94135.75;;;5.03;85.95
6136;BME280;24008;42.664;23.372;2023-04-03T04:47:35;94144.34;;;5.12;86.07
6136;BME280;24008;42.664;23.372;2023-04-03T04:50:03;94153.06;;;5.19;85.98
6136;BME280;24008;42.664;23.372;2023-04-03T04:52:31;94149.34;;;5.23;86.14
6136;BME280;24008;42.664;23.372;2023-04-03T04:54:57;94149.34;;;5.23;85.91
6136;BME280;24008;42.664;23.372;2023-04-03T04:57:25;94146.13;;;5.21;85.37
6136;BME280;24008;42.664;23.372;2023-04-03T04:59:53;93673.59;;;2.21;85.49
6136;BME280;24008;42.664;23.372;2023-04-03T05:02:19;94151.53;;;5.27;86.27
6136;BME280;24008;42.664;23.372;2023-04-03T05:04:46;94161.16;;;5.33;85.74
6136;BME280;24008;42.664;23.372;2023-04-03T05:07:15;94163.78;;;5.43;85.42
6136;BME280;24008;42.664;23.372;2023-04-03T05:09:42;93750.28;;;2.83;85.08
6136;BME280;24008;42.664;23.372;2023-04-03T05:12:09;94106.50;;;5.20;84.73
6136;BME280;24008;42.664;23.372;2023-04-03T05:14:35;94188.41;;;5.83;83.48
6136;BME280;24008;42.664;23.372;2023-04-03T05:17:03;94170.91;;;6.00;82.45
6136;BME280;24008;42.664;23.372;2023-04-03T05:19:30;94010.09;;;5.12;81.94
6136;BME280;24008;42.664;23.372;2023-04-03T05:21:57;94180.91;;;6.32;81.11
6136;BME280;24008;42.664;23.372;2023-04-03T05:24:24;94176.97;;;6.49;79.29
6136;BME280;24008;42.664;23.372;2023-04-03T05:26:51;94173.09;;;6.64;78.17
6136;BME280;24008;42.664;23.372;2023-04-03T05:29:18;94173.81;;;6.76;77.21
6136;BME280;24008;42.664;23.372;2023-04-03T05:31:45;94174.63;;;6.86;76.85
6136;BME280;24008;42.664;23.372;2023-04-03T05:34:13;94177.03;;;6.97;77.36
6136;BME280;24008;42.664;23.372;2023-04-03T05:36:40;94170.09;;;6.99;78.60
6136;BME280;24008;42.664;23.372;2023-04-03T05:39:07;93998.13;;;5.94;79.11
6136;BME280;24008;42.664;23.372;2023-04-03T05:41:34;94162.34;;;7.10;79.00
6136;BME280;24008;42.664;23.372;2023-04-03T05:44:01;93990.97;;;6.08;77.46
6136;BME280;24008;42.664;23.372;2023-04-03T05:46:27;94109.38;;;6.96;76.18
6136;BME280;24008;42.664;23.372;2023-04-03T05:48:54;94175.81;;;7.40;74.87
6136;BME280;24008;42.664;23.372;2023-04-03T05:51:24;94156.44;;;7.48;74.61
6136;BME280;24008;42.664;23.372;2023-04-03T05:53:56;94086.78;;;7.12;73.97
6136;BME280;24008;42.664;23.372;2023-04-03T05:56:27;94162.25;;;7.78;73.89
6136;BME280;24008;42.664;23.372;2023-04-03T05:58:54;94165.44;;;7.89;73.96
6136;BME280;24008;42.664;23.372;2023-04-03T06:01:21;94165.44;;;7.89;73.27
6136;BME280;24008;42.664;23.372;2023-04-03T06:03:48;94098.28;;;7.63;72.80
6136;BME280;24008;42.664;23.372;2023-04-03T06:06:15;94149.06;;;8.02;73.37
6136;BME280;24008;42.664;23.372;2023-04-03T06:08:43;94107.31;;;7.85;72.34
6136;BME280;24008;42.664;23.372;2023-04-03T06:11:11;94142.00;;;8.23;71.95
6136;BME280;24008;42.664;23.372;2023-04-03T06:13:38;94045.00;;;7.71;70.90
6136;BME280;24008;42.664;23.372;2023-04-03T06:16:05;94023.63;;;7.64;70.20
6136;BME280;24008;42.664;23.372;2023-04-03T06:18:32;94076.94;;;8.11;70.41
6136;BME280;24008;42.664;23.372;2023-04-03T06:20:59;94060.84;;;8.20;69.88
6136;BME280;24008;42.664;23.372;2023-04-03T06:23:29;93728.16;;;6.25;69.78
6136;BME280;24008;42.664;23.372;2023-04-03T06:25:57;93865.56;;;7.14;68.83
6136;BME280;24008;42.664;23.372;2023-04-03T06:28:25;94087.63;;;8.51;68.78
6136;BME280;24008;42.664;23.372;2023-04-03T06:30:51;94032.41;;;8.24;68.20
6136;BME280;24008;42.664;23.372;2023-04-03T06:33:18;94150.09;;;9.09;67.50
6136;BME280;24008;42.664;23.372;2023-04-03T06:35:45;94043.59;;;8.41;66.59
6136;BME280;24008;42.664;23.372;2023-04-03T06:38:12;94165.91;;;9.12;67.17
6136;BME280;24008;42.664;23.372;2023-04-03T06:40:38;93943.34;;;7.79;66.24
6136;BME280;24008;42.664;23.372;2023-04-03T06:43:07;93829.94;;;6.96;66.25
6136;BME280;24008;42.664;23.372;2023-04-03T06:45:33;94013.91;;;8.32;64.98
6136;BME280;24008;42.664;23.372;2023-04-03T06:48:01;94148.78;;;9.22;65.81
6136;BME280;24008;42.664;23.372;2023-04-03T06:50:28;94154.84;;;9.03;65.09
6136;BME280;24008;42.664;23.372;2023-04-03T06:52:55;94155.00;;;9.02;66.46
6136;BME280;24008;42.664;23.372;2023-04-03T06:55:22;94160.50;;;8.97;67.08
6136;BME280;24008;42.664;23.372;2023-04-03T06:57:48;93564.09;;;5.15;67.13
6136;BME280;24008;42.664;23.372;2023-04-03T07:00:18;94155.88;;;8.93;66.69
6136;BME280;24008;42.664;23.372;2023-04-03T07:02:45;94159.44;;;9.00;67.30
6136;BME280;24008;42.664;23.372;2023-04-03T07:05:12;94161.03;;;9.01;68.26
6136;BME280;24008;42.664;23.372;2023-04-03T07:07:39;94019.81;;;8.23;67.69
6136;BME280;24008;42.664;23.372;2023-04-03T07:10:07;94042.50;;;8.44;68.41
6136;BME280;24008;42.664;23.372;2023-04-03T07:12:34;94146.91;;;9.24;67.96
6136;BME280;24008;42.664;23.372;2023-04-03T07:15:01;94145.88;;;9.35;68.57
6136;BME280;24008;42.664;23.372;2023-04-03T07:17:29;94134.22;;;9.32;66.74
6136;BME280;24008;42.664;23.372;2023-04-03T07:19:56;94109.19;;;9.54;66.46
6136;BME280;24008;42.664;23.372;2023-04-03T07:22:23;94148.09;;;9.82;66.13
6136;BME280;24008;42.664;23.372;2023-04-03T07:24:50;94135.16;;;10.01;66.42
6136;BME280;24008;42.664;23.372;2023-04-03T07:27:17;94127.44;;;10.19;66.02
6136;BME280;24008;42.664;23.372;2023-04-03T07:29:44;93664.59;;;7.25;65.46
6136;BME280;24008;42.664;23.372;2023-04-03T07:32:15;93664.53;;;7.17;64.64
6136;BME280;24008;42.664;23.372;2023-04-03T07:34:44;94091.53;;;10.20;64.62
6136;BME280;24008;42.664;23.372;2023-04-03T07:37:11;94129.66;;;10.64;63.72
6136;BME280;24008;42.664;23.372;2023-04-03T07:39:38;94140.41;;;10.75;63.16
6136;BME280;24008;42.664;23.372;2023-04-03T07:42:05;93641.25;;;7.73;61.52
6136;BME280;24008;42.664;23.372;2023-04-03T07:44:32;94122.72;;;11.14;60.87
6136;BME280;24008;42.664;23.372;2023-04-03T07:46:59;94130.25;;;11.16;61.26
6136;BME280;24008;42.664;23.372;2023-04-03T07:49:26;94117.78;;;11.21;61.35
6136;BME280;24008;42.664;23.372;2023-04-03T07:51:54;94139.19;;;11.36;60.83
6136;BME280;24008;42.664;23.372;2023-04-03T07:54:21;93961.16;;;10.46;60.35
6136;BME280;24008;42.664;23.372;2023-04-03T07:56:48;93973.00;;;10.55;60.41
6136;BME280;24008;42.664;23.372;2023-04-03T07:59:15;94120.00;;;11.48;60.15
6136;BME280;24008;42.664;23.372;2023-04-03T08:01:42;94063.13;;;11.06;59.55
6136;BME280;24008;42.664;23.372;2023-04-03T08:04:08;94015.97;;;10.76;60.14
6136;BME280;24008;42.664;23.372;2023-04-03T08:06:38;94109.16;;;11.38;59.98
6136;BME280;24008;42.664;23.372;2023-04-03T08:09:06;94037.88;;;10.87;60.37
6136;BME280;24008;42.664;23.372;2023-04-03T08:11:33;94107.72;;;11.44;60.14
6136;BME280;24008;42.664;23.372;2023-04-03T08:14:01;94109.78;;;11.40;58.90
6136;BME280;24008;42.664;23.372;2023-04-03T08:16:28;93946.66;;;10.46;59.31
6136;BME280;24008;42.664;23.372;2023-04-03T08:18:55;93726.00;;;9.01;59.47
6136;BME280;24008;42.664;23.372;2023-04-03T08:21:22;93945.66;;;10.39;59.21
6136;BME280;24008;42.664;23.372;2023-04-03T08:23:52;93664.94;;;8.76;58.95
6136;BME280;24008;42.664;23.372;2023-04-03T08:26:21;93678.38;;;9.10;57.68
6136;BME280;24008;42.664;23.372;2023-04-03T08:28:48;93790.22;;;9.88;57.59
6136;BME280;24008;42.664;23.372;2023-04-03T08:31:17;93518.81;;;8.02;58.21
6136;BME280;24008;42.664;23.372;2023-04-03T08:33:46;93959.59;;;10.86;58.04
6136;BME280;24008;42.664;23.372;2023-04-03T08:36:18;94104.19;;;11.77;58.26
6136;BME280;24008;42.664;23.372;2023-04-03T08:38:46;94010.19;;;11.31;58.34
6136;BME280;24008;42.664;23.372;2023-04-03T08:41:15;94076.13;;;11.92;58.60
6136;BME280;24008;42.664;23.372;2023-04-03T08:43:58;94076.41;;;12.05;58.61
6136;BME280;24008;42.664;23.372;2023-04-03T08:46:38;94077.44;;;12.27;57.99
6136;BME280;24008;42.664;23.372;2023-04-03T08:49:11;93983.81;;;11.85;56.83
6136;BME280;24008;42.664;23.372;2023-04-03T08:51:47;94035.88;;;12.17;56.99
6136;BME280;24008;42.664;23.372;2023-04-03T08:54:24;94055.84;;;12.21;57.43
6136;BME280;24008;42.664;23.372;2023-04-03T08:56:52;94013.22;;;12.29;57.14
6136;BME280;24008;42.664;23.372;2023-04-03T08:59:26;94060.72;;;12.70;56.70
6136;BME280;24008;42.664;23.372;2023-04-03T09:01:56;94071.19;;;12.91;56.00
6136;BME280;24008;42.664;23.372;2023-04-03T09:04:25;94056.63;;;13.07;55.66
6136;BME280;24008;42.664;23.372;2023-04-03T09:06:56;93916.59;;;12.14;54.98
6136;BME280;24008;42.664;23.372;2023-04-03T09:09:30;93934.59;;;12.29;56.23
6136;BME280;24008;42.664;23.372;2023-04-03T09:12:04;94046.94;;;13.17;55.39
6136;BME280;24008;42.664;23.372;2023-04-03T09:14:39;94004.69;;;13.05;54.76
6136;BME280;24008;42.664;23.372;2023-04-03T09:17:14;94039.81;;;13.27;54.60
6136;BME280;24008;42.664;23.372;2023-04-03T09:19:49;94036.78;;;13.23;54.35
6136;BME280;24008;42.664;23.372;2023-04-03T09:22:20;94035.72;;;13.18;54.06
6136;BME280;24008;42.664;23.372;2023-04-03T09:24:55;93937.84;;;12.46;54.96
6136;BME280;24008;42.664;23.372;2023-04-03T09:27:23;93836.97;;;12.01;54.99
6136;BME280;24008;42.664;23.372;2023-04-03T09:29:53;93921.16;;;12.50;54.76
6136;BME280;24008;42.664;23.372;2023-04-03T09:32:25;94027.88;;;13.34;55.44
6136;BME280;24008;42.664;23.372;2023-04-03T09:34:57;93992.28;;;13.31;54.29
6136;BME280;24008;42.664;23.372;2023-04-03T09:37:38;93927.72;;;13.05;53.74
6136;BME280;24008;42.664;23.372;2023-04-03T09:40:31;93774.75;;;12.15;53.37
6136;BME280;24008;42.664;23.372;2023-04-03T09:43:01;93953.78;;;13.31;52.67
6136;BME280;24008;42.664;23.372;2023-04-03T09:45:30;93851.44;;;12.54;53.37
6136;BME280;24008;42.664;23.372;2023-04-03T09:48:08;94012.97;;;13.52;53.78
6136;BME280;24008;42.664;23.372;2023-04-03T09:50:53;93979.53;;;13.23;55.33
6136;BME280;24008;42.664;23.372;2023-04-03T09:53:29;94016.34;;;13.30;54.75
6136;BME280;24008;42.664;23.372;2023-04-03T09:55:56;93956.66;;;12.98;54.57
6136;BME280;24008;42.664;23.372;2023-04-03T09:58:26;94001.78;;;13.08;54.50
6136;BME280;24008;42.664;23.372;2023-04-03T10:00:57;93993.13;;;12.86;54.78
6136;BME280;24008;42.664;23.372;2023-04-03T10:03:28;93770.84;;;11.28;54.91
6136;BME280;24008;42.664;23.372;2023-04-03T10:05:55;93785.28;;;11.21;55.05
6136;BME280;24008;42.664;23.372;2023-04-03T10:08:26;94003.66;;;12.45;55.62
6136;BME280;24008;42.664;23.372;2023-04-03T10:11:14;93986.34;;;12.24;55.68
6136;BME280;24008;42.664;23.372;2023-04-03T10:13:55;93998.03;;;12.27;55.84
6136;BME280;24008;42.664;23.372;2023-04-03T10:16:31;93997.22;;;12.26;55.76
6136;BME280;24008;42.664;23.372;2023-04-03T10:19:09;94005.00;;;12.41;55.95
6136;BME280;24008;42.664;23.372;2023-04-03T10:21:45;93994.38;;;12.44;55.58
6136;BME280;24008;42.664;23.372;2023-04-03T10:24:18;93973.47;;;12.33;55.64
6136;BME280;24008;42.664;23.372;2023-04-03T10:26:54;93947.91;;;12.24;55.88
6136;BME280;24008;42.664;23.372;2023-04-03T10:29:46;93948.63;;;12.41;55.17
6136;BME280;24008;42.664;23.372;2023-04-03T10:32:27;93965.28;;;12.60;55.17
6136;BME280;24008;42.664;23.372;2023-04-03T10:35:03;93953.41;;;12.67;54.92
6136;BME280;24008;42.664;23.372;2023-04-03T10:37:44;93922.84;;;12.57;54.17
6136;BME280;24008;42.664;23.372;2023-04-03T10:40:23;93873.56;;;12.33;53.97
6136;BME280;24008;42.664;23.372;2023-04-03T10:42:55;93936.97;;;12.76;54.38
6136;BME280;24008;42.664;23.372;2023-04-03T10:45:29;93962.13;;;12.95;53.82
6136;BME280;24008;42.664;23.372;2023-04-03T10:48:06;93895.44;;;12.58;53.57
6136;BME280;24008;42.664;23.372;2023-04-03T10:50:43;93891.19;;;12.50;54.37
6136;BME280;24008;42.664;23.372;2023-04-03T10:53:18;93956.09;;;12.88;54.56
6136;BME280;24008;42.664;23.372;2023-04-03T10:55:56;93889.91;;;12.32;54.91
6136;BME280;24008;42.664;23.372;2023-04-03T10:58:30;93783.50;;;11.52;54.42
6136;BME280;24008;42.664;23.372;2023-04-03T11:01:02;93983.81;;;12.70;54.67
6136;BME280;24008;42.664;23.372;2023-04-03T11:03:36;93617.81;;;10.32;55.01
6136;BME280;24008;42.664;23.372;2023-04-03T11:06:08;93887.72;;;11.67;56.15
6136;BME280;24008;42.664;23.372;2023-04-03T11:08:38;93579.28;;;9.31;57.71
6136;BME280;24008;42.664;23.372;2023-04-03T11:11:12;93888.47;;;10.89;59.47
6136;BME280;24008;42.664;23.372;2023-04-03T11:13:43;93979.50;;;11.31;61.16
6136;BME280;24008;42.664;23.372;2023-04-03T11:16:17;93951.56;;;10.89;62.93
6136;BME280;24008;42.664;23.372;2023-04-03T11:18:50;93980.66;;;10.79;65.22
6136;BME280;24008;42.664;23.372;2023-04-03T11:21:20;93902.34;;;9.97;66.77
6136;BME280;24008;42.664;23.372;2023-04-03T11:23:50;93984.44;;;10.27;68.82
6136;BME280;24008;42.664;23.372;2023-04-03T11:26:19;93978.53;;;10.18;71.90
6136;BME280;24008;42.664;23.372;2023-04-03T11:28:52;93976.72;;;10.10;74.05
6136;BME280;24008;42.664;23.372;2023-04-03T11:31:39;93896.50;;;9.55;75.54
6136;BME280;24008;42.664;23.372;2023-04-03T11:34:21;93820.47;;;9.08;78.39
6136;BME280;24008;42.664;23.372;2023-04-03T11:36:54;93947.56;;;9.71;80.20
6136;BME280;24008;42.664;23.372;2023-04-03T11:39:25;93981.78;;;9.86;82.15
6136;BME280;24008;42.664;23.372;2023-04-03T11:41:53;93884.06;;;8.84;82.50
6136;BME280;24008;42.664;23.372;2023-04-03T11:44:32;93972.72;;;9.58;84.35
6136;BME280;24008;42.664;23.372;2023-04-03T11:47:00;93893.72;;;8.98;87.09
6136;BME280;24008;42.664;23.372;2023-04-03T11:49:58;93979.84;;;9.46;87.62
6136;BME280;24008;42.664;23.372;2023-04-03T11:58:26;93981.75;;;9.18;91.92
6136;BME280;24008;42.664;23.372;2023-04-03T12:00:57;93979.16;;;9.10;94.13
6136;BME280;24008;42.664;23.372;2023-04-03T12:07:08;93931.38;;;8.60;98.07
6136;BME280;24008;42.664;23.372;2023-04-03T12:09:58;93921.09;;;8.44;99.41
6136;BME280;24008;42.664;23.372;2023-04-03T12:12:35;93903.63;;;8.32;100.00
6136;BME280;24008;42.664;23.372;2023-04-03T12:15:22;93982.88;;;8.90;100.00
6136;BME280;24008;42.664;23.372;2023-04-03T12:17:50;93983.44;;;8.84;100.00
6136;BME280;24008;42.664;23.372;2023-04-03T12:20:57;93979.94;;;8.85;100.00
6136;BME280;24008;42.664;23.372;2023-04-03T12:23:29;93955.25;;;8.59;100.00
6136;BME280;24008;42.664;23.372;2023-04-03T12:26:03;93923.97;;;8.49;100.00
6136;BME280;24008;42.664;23.372;2023-04-03T12:28:39;93923.97;;;8.49;100.00
6136;BME280;24008;42.664;23.372;2023-04-03T12:31:08;93974.16;;;8.75;100.00
6136;BME280;24008;42.664;23.372;2023-04-03T12:33:56;93966.38;;;8.58;100.00
6136;BME280;24008;42.664;23.372;2023-04-03T12:36:33;93963.03;;;8.58;100.00
6136;BME280;24008;42.664;23.372;2023-04-03T12:39:21;93880.69;;;8.14;100.00
6136;BME280;24008;42.664;23.372;2023-04-03T12:41:57;93828.81;;;7.89;100.00
6136;BME280;24008;42.664;23.372;2023-04-03T12:44:47;93943.38;;;8.68;100.00
6136;BME280;24008;42.664;23.372;2023-04-03T12:47:28;93915.38;;;8.50;100.00
6136;BME280;24008;42.664;23.372;2023-04-03T12:49:59;93933.91;;;8.60;100.00
6136;BME280;24008;42.664;23.372;2023-04-03T12:52:35;93773.09;;;7.60;100.00
6136;BME280;24008;42.664;23.372;2023-04-03T12:55:08;93932.84;;;8.45;100.00
6136;BME280;24008;42.664;23.372;2023-04-03T12:57:40;93927.19;;;8.51;100.00
6136;BME280;24008;42.664;23.372;2023-04-03T13:00:32;93828.09;;;7.79;100.00
6136;BME280;24008;42.664;23.372;2023-04-03T13:03:01;93925.44;;;8.34;100.00
6136;BME280;24008;42.664;23.372;2023-04-03T13:05:30;93928.97;;;8.33;100.00
6136;BME280;24008;42.664;23.372;2023-04-03T13:07:59;93938.06;;;8.26;100.00
6136;BME280;24008;42.664;23.372;2023-04-03T13:10:29;93928.69;;;8.26;100.00
6136;BME280;24008;42.664;23.372;2023-04-03T13:12:59;93820.53;;;7.51;100.00
6136;BME280;24008;42.664;23.372;2023-04-03T13:15:41;93925.00;;;8.21;100.00
6136;BME280;24008;42.664;23.372;2023-04-03T13:18:28;93931.53;;;8.23;100.00
6136;BME280;24008;42.664;23.372;2023-04-03T13:20:59;93790.38;;;7.39;100.00
6136;BME280;24008;42.664;23.372;2023-04-03T13:23:27;93931.66;;;8.22;100.00
6136;BME280;24008;42.664;23.372;2023-04-03T13:25:57;93859.22;;;7.73;100.00
6136;BME280;24008;42.664;23.372;2023-04-03T13:28:28;93861.31;;;7.77;100.00
6136;BME280;24008;42.664;23.372;2023-04-03T13:30:59;93749.53;;;7.05;100.00
6136;BME280;24008;42.664;23.372;2023-04-03T13:33:28;93917.88;;;8.07;100.00
6136;BME280;24008;42.664;23.372;2023-04-03T13:36:16;93805.69;;;7.29;100.00